• Join FlightAware (Why Join?)
  • Login
  • US Flag 
09:24AM EDT


 

Airport Tracker/Info


-or-


 

Live Flight TrackerFlight Track Log ✈ N966QS ✈ 19-Jun-2013 ✈ KSFO - KCRQ

Flight Track Log - Related Links

Times and Time Zones

All times are in EDT time to prevent confusion due to time zone crossing. See the N966QS flight status page for this flight to view local times or setup timezone preferences in your user account.

Time Position Orientation Groundspeed Altitude Reporting Facility
EDT Latitude Longitude Course Direction KTS MPH feet Rate Location/Type
10:22AM 37.6667 -122.3667 180° South 197 227 3,500  Level Northern Cal TRACON
10:25AM 37.6158 -122.4656 237° Southwest 278 320 10,500 2,760 Climbing Oakland Center
10:26AM 37.4992 -122.4883 189° South 347 399 12,500 2,100 Climbing Oakland Center
10:27AM 37.3950 -122.5056 187° South 372 428 14,800 2,160 Climbing Oakland Center
10:28AM 37.0706 -122.5500 180° South  Level FlightAware Approximate
10:28AM 37.2886 -122.5211 187° South 383 441 16,900  Level Oakland Center
10:29AM 37.1811 -122.5381 187° South 388 447 18,800 1,740 Climbing Oakland Center
10:30AM 37.0703 -122.5561 187° South 398 458 20,500 1,620 Climbing Oakland Center
10:31AM 36.9539 -122.5725 186° South 414 476 22,100 1,560 Climbing Oakland Center
10:32AM 36.8319 -122.5411 168° South 439 505 23,700 1,560 Climbing Oakland Center
10:33AM 36.7178 -122.4628 151° Southeast 477 549 25,300 1,560 Climbing Oakland Center
10:34AM 36.6158 -122.3450 137° Southeast 498 573 26,900 1,560 Climbing Oakland Center
10:35AM 36.5122 -122.2292 138° Southeast 502 578 28,500 1,740 Climbing Oakland Center
10:36AM 36.3822 -122.0883 139° Southeast 513 590 30,500 1,740 Climbing Oakland Center
10:37AM 36.2719 -121.9653 138° Southeast 528 608 32,100 1,560 Climbing Oakland Center
10:38AM 36.1600 -121.8386 138° Southeast 539 620 33,700 1,320 Climbing Oakland Center
10:39AM 36.0467 -121.7100 137° Southeast 550 633 34,900 600 Climbing Oakland Center
10:40AM 35.9278 -121.5817 139° Southeast 562 647 35,000  Climbing Oakland Center
10:41AM 35.8094 -121.4486 138° Southeast 572 658 35,000  Level Oakland Center
10:42AM 35.6906 -121.3167 138° Southeast 576 663 35,000  Level Oakland Center
10:43AM 35.5708 -121.1861 138° Southeast 578 665 35,000  Level Oakland Center
10:44AM 35.4286 -121.0303 138° Southeast 575 662 35,000  Level Oakland Center
10:45AM 35.3006 -120.9233 146° Southeast 563 648 35,000  Level Oakland Center
10:46AM 35.1867 -120.8383 149° Southeast 555 639 35,000  Level Oakland Center
10:47AM 35.0414 -120.7281 148° Southeast 553 636 35,000  Level Oakland Center
10:48AM 34.8983 -120.6200 148° Southeast 552 635 35,000  Level Oakland Center
10:49AM 34.7658 -120.5206 148° Southeast 553 636 35,000  Level Oakland Center
10:50AM 34.6522 -120.4333 148° Southeast 554 638 35,000  Level Oakland Center
10:51AM 34.4950 -120.3169 149° Southeast 554 638 35,000  Level Oakland Center
10:53AM 34.3386 -120.2044 149° Southeast 549 632 35,000 -360 Level Los Angeles Center
10:54AM 34.2356 -120.0997 140° Southeast 560 644 34,200 -2,160 Descending Los Angeles Center
10:55AM 34.1350 -119.9044 122° Southeast 570 656 30,600 -3,240 Descending Los Angeles Center
10:56AM 34.0544 -119.7436 121° Southeast 563 648 27,600 -2,880 Descending Los Angeles Center
10:57AM 33.9756 -119.5878 121° Southeast 550 633 24,700 -3,000 Descending Los Angeles Center
10:58AM 33.8875 -119.4150 122° Southeast 509 586 21,500 -2,820 Descending Los Angeles Center
10:59AM 33.8206 -119.2806 121° Southeast 472 543 19,000 -2,460 Descending Los Angeles Center
11:00AM 33.7519 -119.1472 122° Southeast 470 541 16,500 -2,460 Descending Los Angeles Center
11:01AM 33.6836 -119.0139 122° Southeast 472 543 14,000 -2,400 Descending Los Angeles Center
11:02AM 33.6178 -118.8864 122° Southeast 458 527 11,600 -1,440 Descending Los Angeles Center
11:03AM 33.5422 -118.7436 122° Southeast 430 495 11,100 -300 Descending Los Angeles Center
11:04AM 33.4817 -118.6261 122° Southeast 421 484 11,100  Level Los Angeles Center
11:05AM 33.4208 -118.5089 122° Southeast 420 483 11,100  Level Los Angeles Center
11:06AM 33.3714 -118.3864 116° Southeast 420 483 11,100  Level Los Angeles Center
11:07AM 33.3519 -118.2528 100° East 417 480 11,100  Level Los Angeles Center
11:08AM 33.3344 -118.1128 98° East 366 421 11,100 -360 Level Los Angeles Center
11:09AM 33.3211 -118.0064 99° East 336 387 10,400 -900 Descending Los Angeles Center
11:10AM 33.3061 -117.9042 100° East 320 368 9,300 -1,200 Descending Los Angeles Center
11:11AM 33.2939 -117.8044 98° East 310 357 8,000 -1,440 Descending Los Angeles Center
11:12AM 33.2806 -117.7058 99° East 304 350 6,400 -1,440 Descending Los Angeles Center
11:13AM 33.2667 -117.6122 100° East 293 337 5,100 -660 Descending Los Angeles Center
11:14AM 33.2525 -117.5064 99° East 279 321 5,100  Level Los Angeles Center
11:15AM 33.2417 -117.4206 99° East 270 311 5,100 -660 Level Los Angeles Center
11:16AM 33.2333 -117.3167 95° East 250 288 3,700 -720 Descending Southern California TRACON
11:17AM 33.2333 -117.2500 90° East 238 274 3,700  Level Southern California TRACON
11:18AM 33.2333 -117.1667 90° East 233 268 3,700  Level Southern California TRACON
11:19AM 33.2000 -117.1000 121° Southeast 235 270 3,700 -300 Level Southern California TRACON
11:20AM 33.1500 -117.1167 196° South 230 265 3,200 -900 Descending Southern California TRACON
11:21AM 33.1500 -117.1833 270° West 190 219 2,000 -960 Descending Southern California TRACON
11:22AM 33.1333 -117.2333 248° West 135 155 1,200 -780 Descending Southern California TRACON
11:23AM 33.1333 -117.2667 270° West 127 146 500 -720 Descending Southern California TRACON